sensor_id;sensor_type;location;lat;lon;timestamp;pressure;altitude;pressure_sealevel;temperature;humidity
75089;BME280;63673;49.928;8.150;2022-12-04T00:00:28;989.81;;;0.75;100
75089;BME280;63673;49.928;8.150;2022-12-04T00:01:30;989.81;;;0.75;100
75089;BME280;63673;49.928;8.150;2022-12-04T00:02:32;989.86;;;0.74;100
75089;BME280;63673;49.928;8.150;2022-12-04T00:03:34;989.83;;;0.75;100
75089;BME280;63673;49.928;8.150;2022-12-04T00:04:35;989.85;;;0.75;100
75089;BME280;63673;49.928;8.150;2022-12-04T00:05:37;989.79;;;0.74;100
75089;BME280;63673;49.928;8.150;2022-12-04T00:06:39;989.83;;;0.74;100
75089;BME280;63673;49.928;8.150;2022-12-04T00:07:40;989.83;;;0.74;100
75089;BME280;63673;49.928;8.150;2022-12-04T00:08:42;989.85;;;0.75;100
75089;BME280;63673;49.928;8.150;2022-12-04T00:09:44;989.84;;;0.74;100
75089;BME280;63673;49.928;8.150;2022-12-04T00:10:46;989.9;;;0.74;100
75089;BME280;63673;49.928;8.150;2022-12-04T00:11:47;989.91;;;0.74;100
75089;BME280;63673;49.928;8.150;2022-12-04T00:12:49;989.9;;;0.75;100
75089;BME280;63673;49.928;8.150;2022-12-04T00:13:51;989.92;;;0.74;100
75089;BME280;63673;49.928;8.150;2022-12-04T00:14:53;989.91;;;0.74;100
75089;BME280;63673;49.928;8.150;2022-12-04T00:15:54;989.9;;;0.74;100
75089;BME280;63673;49.928;8.150;2022-12-04T00:16:56;989.98;;;0.75;100
75089;BME280;63673;49.928;8.150;2022-12-04T00:17:58;989.95;;;0.73;100
75089;BME280;63673;49.928;8.150;2022-12-04T00:18:59;989.95;;;0.74;100
75089;BME280;63673;49.928;8.150;2022-12-04T00:20:02;989.91;;;0.73;100
75089;BME280;63673;49.928;8.150;2022-12-04T00:21:03;989.95;;;0.73;100
75089;BME280;63673;49.928;8.150;2022-12-04T00:22:05;989.91;;;0.72;100
75089;BME280;63673;49.928;8.150;2022-12-04T00:23:06;989.96;;;0.72;100
75089;BME280;63673;49.928;8.150;2022-12-04T00:24:08;989.93;;;0.71;100
75089;BME280;63673;49.928;8.150;2022-12-04T00:25:10;989.94;;;0.7;100
75089;BME280;63673;49.928;8.150;2022-12-04T00:26:12;989.85;;;0.72;100
75089;BME280;63673;49.928;8.150;2022-12-04T00:27:13;989.94;;;0.71;100
75089;BME280;63673;49.928;8.150;2022-12-04T00:28:15;989.93;;;0.72;100
75089;BME280;63673;49.928;8.150;2022-12-04T00:29:17;989.96;;;0.73;100
75089;BME280;63673;49.928;8.150;2022-12-04T00:30:19;989.96;;;0.72;100
75089;BME280;63673;49.928;8.150;2022-12-04T00:31:21;989.98;;;0.72;100
75089;BME280;63673;49.928;8.150;2022-12-04T00:32:22;990.02;;;0.72;100
75089;BME280;63673;49.928;8.150;2022-12-04T00:33:24;989.96;;;0.72;100
75089;BME280;63673;49.928;8.150;2022-12-04T00:34:25;990.02;;;0.71;100
75089;BME280;63673;49.928;8.150;2022-12-04T00:35:27;990.01;;;0.71;100
75089;BME280;63673;49.928;8.150;2022-12-04T00:36:29;989.97;;;0.71;100
75089;BME280;63673;49.928;8.150;2022-12-04T00:37:31;989.94;;;0.71;100
75089;BME280;63673;49.928;8.150;2022-12-04T00:38:32;989.99;;;0.71;100
75089;BME280;63673;49.928;8.150;2022-12-04T00:39:34;989.87;;;0.71;100
75089;BME280;63673;49.928;8.150;2022-12-04T00:40:36;989.97;;;0.71;100
75089;BME280;63673;49.928;8.150;2022-12-04T00:41:38;989.98;;;0.7;100
75089;BME280;63673;49.928;8.150;2022-12-04T00:42:39;989.95;;;0.71;100
75089;BME280;63673;49.928;8.150;2022-12-04T00:43:41;990.01;;;0.7;100
75089;BME280;63673;49.928;8.150;2022-12-04T00:44:43;989.98;;;0.71;100
75089;BME280;63673;49.928;8.150;2022-12-04T00:45:44;990.04;;;0.71;100
75089;BME280;63673;49.928;8.150;2022-12-04T00:46:46;990.05;;;0.71;100
75089;BME280;63673;49.928;8.150;2022-12-04T00:47:48;989.99;;;0.72;100
75089;BME280;63673;49.928;8.150;2022-12-04T00:48:50;990.04;;;0.71;100
75089;BME280;63673;49.928;8.150;2022-12-04T00:49:51;989.96;;;0.71;100
75089;BME280;63673;49.928;8.150;2022-12-04T00:50:53;989.96;;;0.69;100
75089;BME280;63673;49.928;8.150;2022-12-04T00:51:55;989.95;;;0.7;100
75089;BME280;63673;49.928;8.150;2022-12-04T00:52:57;989.97;;;0.69;100
75089;BME280;63673;49.928;8.150;2022-12-04T00:53:58;989.97;;;0.71;100
75089;BME280;63673;49.928;8.150;2022-12-04T00:55:00;989.91;;;0.7;100
75089;BME280;63673;49.928;8.150;2022-12-04T00:56:03;989.89;;;0.71;100
75089;BME280;63673;49.928;8.150;2022-12-04T00:57:04;989.87;;;0.69;100
75089;BME280;63673;49.928;8.150;2022-12-04T00:58:05;989.87;;;0.69;100
75089;BME280;63673;49.928;8.150;2022-12-04T00:59:09;989.9;;;0.69;100
75089;BME280;63673;49.928;8.150;2022-12-04T01:00:09;989.93;;;0.7;100
75089;BME280;63673;49.928;8.150;2022-12-04T01:01:11;989.91;;;0.69;100
75089;BME280;63673;49.928;8.150;2022-12-04T01:02:12;989.89;;;0.7;100
75089;BME280;63673;49.928;8.150;2022-12-04T01:03:14;989.91;;;0.7;100
75089;BME280;63673;49.928;8.150;2022-12-04T01:04:16;989.95;;;0.69;100
75089;BME280;63673;49.928;8.150;2022-12-04T01:05:17;989.95;;;0.69;100
75089;BME280;63673;49.928;8.150;2022-12-04T01:06:20;990;;;0.69;100
75089;BME280;63673;49.928;8.150;2022-12-04T01:07:21;990.01;;;0.7;100
75089;BME280;63673;49.928;8.150;2022-12-04T01:08:23;989.97;;;0.69;100
75089;BME280;63673;49.928;8.150;2022-12-04T01:09:24;989.91;;;0.7;100
75089;BME280;63673;49.928;8.150;2022-12-04T01:10:26;989.9;;;0.68;100
75089;BME280;63673;49.928;8.150;2022-12-04T01:11:28;989.9;;;0.69;100
75089;BME280;63673;49.928;8.150;2022-12-04T01:12:31;989.82;;;0.7;100
75089;BME280;63673;49.928;8.150;2022-12-04T01:13:31;989.82;;;0.7;100
75089;BME280;63673;49.928;8.150;2022-12-04T01:14:33;989.79;;;0.7;100
75089;BME280;63673;49.928;8.150;2022-12-04T01:15:37;989.73;;;0.7;100
75089;BME280;63673;49.928;8.150;2022-12-04T01:16:37;989.72;;;0.69;100
75089;BME280;63673;49.928;8.150;2022-12-04T01:17:38;989.75;;;0.69;100
75089;BME280;63673;49.928;8.150;2022-12-04T01:18:40;989.74;;;0.69;100
75089;BME280;63673;49.928;8.150;2022-12-04T01:19:42;989.74;;;0.7;100
75089;BME280;63673;49.928;8.150;2022-12-04T01:20:45;989.66;;;0.68;100
75089;BME280;63673;49.928;8.150;2022-12-04T01:21:45;989.69;;;0.69;100
75089;BME280;63673;49.928;8.150;2022-12-04T01:22:47;989.65;;;0.7;100
75089;BME280;63673;49.928;8.150;2022-12-04T01:23:49;989.67;;;0.69;100
75089;BME280;63673;49.928;8.150;2022-12-04T01:24:53;989.72;;;0.69;100
75089;BME280;63673;49.928;8.150;2022-12-04T01:25:52;989.67;;;0.67;100
75089;BME280;63673;49.928;8.150;2022-12-04T01:26:54;989.64;;;0.68;100
75089;BME280;63673;49.928;8.150;2022-12-04T01:27:56;989.63;;;0.69;100
75089;BME280;63673;49.928;8.150;2022-12-04T01:28:57;989.57;;;0.69;100
75089;BME280;63673;49.928;8.150;2022-12-04T01:29:59;989.53;;;0.67;100
75089;BME280;63673;49.928;8.150;2022-12-04T01:31:02;989.49;;;0.67;100
75089;BME280;63673;49.928;8.150;2022-12-04T01:32:03;989.58;;;0.67;100
75089;BME280;63673;49.928;8.150;2022-12-04T01:33:04;989.54;;;0.68;100
75089;BME280;63673;49.928;8.150;2022-12-04T01:34:06;989.62;;;0.68;100
75089;BME280;63673;49.928;8.150;2022-12-04T01:35:08;989.57;;;0.68;100
75089;BME280;63673;49.928;8.150;2022-12-04T01:36:12;989.56;;;0.67;100
75089;BME280;63673;49.928;8.150;2022-12-04T01:37:11;989.55;;;0.68;100
75089;BME280;63673;49.928;8.150;2022-12-04T01:38:13;989.61;;;0.67;100
75089;BME280;63673;49.928;8.150;2022-12-04T01:39:15;989.58;;;0.67;100
75089;BME280;63673;49.928;8.150;2022-12-04T01:40:16;989.61;;;0.68;100
75089;BME280;63673;49.928;8.150;2022-12-04T01:41:19;989.65;;;0.68;100
75089;BME280;63673;49.928;8.150;2022-12-04T01:42:20;989.56;;;0.67;100
75089;BME280;63673;49.928;8.150;2022-12-04T01:43:22;989.52;;;0.67;100
75089;BME280;63673;49.928;8.150;2022-12-04T01:44:24;989.47;;;0.66;100
75089;BME280;63673;49.928;8.150;2022-12-04T01:45:33;989.43;;;0.67;100
75089;BME280;63673;49.928;8.150;2022-12-04T01:46:27;989.5;;;0.67;100
75089;BME280;63673;49.928;8.150;2022-12-04T01:47:28;989.52;;;0.66;100
75089;BME280;63673;49.928;8.150;2022-12-04T01:48:31;989.52;;;0.65;100
75089;BME280;63673;49.928;8.150;2022-12-04T01:49:33;989.55;;;0.66;100
75089;BME280;63673;49.928;8.150;2022-12-04T01:50:34;989.57;;;0.65;100
75089;BME280;63673;49.928;8.150;2022-12-04T01:51:36;989.65;;;0.65;100
75089;BME280;63673;49.928;8.150;2022-12-04T01:52:37;989.64;;;0.66;100
75089;BME280;63673;49.928;8.150;2022-12-04T01:53:40;989.68;;;0.65;100
75089;BME280;63673;49.928;8.150;2022-12-04T01:54:41;989.7;;;0.64;100
75089;BME280;63673;49.928;8.150;2022-12-04T01:55:43;989.67;;;0.63;100
75089;BME280;63673;49.928;8.150;2022-12-04T01:56:45;989.76;;;0.63;100
75089;BME280;63673;49.928;8.150;2022-12-04T01:57:46;989.78;;;0.65;100
75089;BME280;63673;49.928;8.150;2022-12-04T01:58:49;989.85;;;0.65;100
75089;BME280;63673;49.928;8.150;2022-12-04T01:59:51;989.88;;;0.64;100
75089;BME280;63673;49.928;8.150;2022-12-04T02:00:51;989.91;;;0.62;100
75089;BME280;63673;49.928;8.150;2022-12-04T02:01:56;989.89;;;0.64;100
75089;BME280;63673;49.928;8.150;2022-12-04T02:02:54;989.9;;;0.65;100
75089;BME280;63673;49.928;8.150;2022-12-04T02:03:56;989.88;;;0.63;100
75089;BME280;63673;49.928;8.150;2022-12-04T02:04:58;989.89;;;0.64;100
75089;BME280;63673;49.928;8.150;2022-12-04T02:06:00;989.89;;;0.64;100
75089;BME280;63673;49.928;8.150;2022-12-04T02:07:02;989.86;;;0.65;100
75089;BME280;63673;49.928;8.150;2022-12-04T02:08:03;989.9;;;0.65;100
75089;BME280;63673;49.928;8.150;2022-12-04T02:09:05;989.91;;;0.65;100
75089;BME280;63673;49.928;8.150;2022-12-04T02:10:07;989.93;;;0.65;100
75089;BME280;63673;49.928;8.150;2022-12-04T02:11:11;989.85;;;0.64;100
75089;BME280;63673;49.928;8.150;2022-12-04T02:12:12;989.88;;;0.63;100
75089;BME280;63673;49.928;8.150;2022-12-04T02:13:13;989.9;;;0.64;100
75089;BME280;63673;49.928;8.150;2022-12-04T02:14:17;989.94;;;0.64;100
75089;BME280;63673;49.928;8.150;2022-12-04T02:15:16;989.88;;;0.64;100
75089;BME280;63673;49.928;8.150;2022-12-04T02:16:18;989.91;;;0.64;100
75089;BME280;63673;49.928;8.150;2022-12-04T02:17:20;989.85;;;0.63;100
75089;BME280;63673;49.928;8.150;2022-12-04T02:18:22;989.79;;;0.64;100
75089;BME280;63673;49.928;8.150;2022-12-04T02:19:48;989.85;;;0.64;100
75089;BME280;63673;49.928;8.150;2022-12-04T02:20:27;989.79;;;0.64;100
75089;BME280;63673;49.928;8.150;2022-12-04T02:21:27;989.81;;;0.64;100
75089;BME280;63673;49.928;8.150;2022-12-04T02:22:29;989.83;;;0.63;100
75089;BME280;63673;49.928;8.150;2022-12-04T02:23:35;989.83;;;0.62;100
75089;BME280;63673;49.928;8.150;2022-12-04T02:24:35;989.85;;;0.64;100
75089;BME280;63673;49.928;8.150;2022-12-04T02:25:34;989.86;;;0.64;100
75089;BME280;63673;49.928;8.150;2022-12-04T02:26:37;989.85;;;0.63;100
75089;BME280;63673;49.928;8.150;2022-12-04T02:27:47;989.84;;;0.63;100
75089;BME280;63673;49.928;8.150;2022-12-04T02:28:39;989.87;;;0.65;100
75089;BME280;63673;49.928;8.150;2022-12-04T02:29:41;989.84;;;0.65;100
75089;BME280;63673;49.928;8.150;2022-12-04T02:30:41;989.83;;;0.64;100
75089;BME280;63673;49.928;8.150;2022-12-04T02:31:46;989.81;;;0.65;100
75089;BME280;63673;49.928;8.150;2022-12-04T02:32:46;989.81;;;0.64;100
75089;BME280;63673;49.928;8.150;2022-12-04T02:33:47;989.83;;;0.65;100
75089;BME280;63673;49.928;8.150;2022-12-04T02:34:50;989.77;;;0.64;100
75089;BME280;63673;49.928;8.150;2022-12-04T02:35:51;989.83;;;0.63;100
75089;BME280;63673;49.928;8.150;2022-12-04T02:36:53;989.8;;;0.64;100
75089;BME280;63673;49.928;8.150;2022-12-04T02:37:54;989.79;;;0.63;100
75089;BME280;63673;49.928;8.150;2022-12-04T02:38:56;989.82;;;0.64;100
75089;BME280;63673;49.928;8.150;2022-12-04T02:39:58;989.84;;;0.62;100
75089;BME280;63673;49.928;8.150;2022-12-04T02:41:00;989.92;;;0.63;100
75089;BME280;63673;49.928;8.150;2022-12-04T02:42:02;989.98;;;0.62;100
75089;BME280;63673;49.928;8.150;2022-12-04T02:43:04;989.93;;;0.62;100
75089;BME280;63673;49.928;8.150;2022-12-04T02:44:06;989.91;;;0.63;100
75089;BME280;63673;49.928;8.150;2022-12-04T02:45:07;989.89;;;0.62;100
75089;BME280;63673;49.928;8.150;2022-12-04T02:46:08;989.87;;;0.63;100
75089;BME280;63673;49.928;8.150;2022-12-04T02:47:10;989.91;;;0.61;100
75089;BME280;63673;49.928;8.150;2022-12-04T02:48:12;989.88;;;0.6;100
75089;BME280;63673;49.928;8.150;2022-12-04T02:49:13;989.9;;;0.6;100
75089;BME280;63673;49.928;8.150;2022-12-04T02:50:15;989.85;;;0.61;100
75089;BME280;63673;49.928;8.150;2022-12-04T02:51:17;989.82;;;0.6;100
75089;BME280;63673;49.928;8.150;2022-12-04T02:52:19;989.77;;;0.6;100
75089;BME280;63673;49.928;8.150;2022-12-04T02:53:21;989.71;;;0.6;100
75089;BME280;63673;49.928;8.150;2022-12-04T02:54:22;989.72;;;0.61;100
75089;BME280;63673;49.928;8.150;2022-12-04T02:55:24;989.69;;;0.6;100
75089;BME280;63673;49.928;8.150;2022-12-04T02:56:25;989.72;;;0.6;100
75089;BME280;63673;49.928;8.150;2022-12-04T02:57:27;989.73;;;0.58;100
75089;BME280;63673;49.928;8.150;2022-12-04T02:58:29;989.71;;;0.6;100
75089;BME280;63673;49.928;8.150;2022-12-04T02:59:31;989.75;;;0.59;100
75089;BME280;63673;49.928;8.150;2022-12-04T03:00:32;989.69;;;0.58;100
75089;BME280;63673;49.928;8.150;2022-12-04T03:01:34;989.73;;;0.59;100
75089;BME280;63673;49.928;8.150;2022-12-04T03:02:36;989.71;;;0.58;100
75089;BME280;63673;49.928;8.150;2022-12-04T03:03:37;989.71;;;0.58;100
75089;BME280;63673;49.928;8.150;2022-12-04T03:04:38;989.68;;;0.59;100
75089;BME280;63673;49.928;8.150;2022-12-04T03:05:42;989.67;;;0.58;100
75089;BME280;63673;49.928;8.150;2022-12-04T03:06:43;989.68;;;0.58;100
75089;BME280;63673;49.928;8.150;2022-12-04T03:07:45;989.62;;;0.58;100
75089;BME280;63673;49.928;8.150;2022-12-04T03:08:47;989.69;;;0.56;100
75089;BME280;63673;49.928;8.150;2022-12-04T03:09:49;989.64;;;0.58;100
75089;BME280;63673;49.928;8.150;2022-12-04T03:10:50;989.7;;;0.57;100
75089;BME280;63673;49.928;8.150;2022-12-04T03:11:51;989.76;;;0.57;100
75089;BME280;63673;49.928;8.150;2022-12-04T03:12:53;989.64;;;0.57;100
75089;BME280;63673;49.928;8.150;2022-12-04T03:13:56;989.64;;;0.55;100
75089;BME280;63673;49.928;8.150;2022-12-04T03:14:57;989.7;;;0.55;100
75089;BME280;63673;49.928;8.150;2022-12-04T03:15:59;989.72;;;0.55;100
75089;BME280;63673;49.928;8.150;2022-12-04T03:17:00;989.66;;;0.55;100
75089;BME280;63673;49.928;8.150;2022-12-04T03:18:02;989.69;;;0.55;100
75089;BME280;63673;49.928;8.150;2022-12-04T03:19:04;989.7;;;0.55;100
75089;BME280;63673;49.928;8.150;2022-12-04T03:20:06;989.73;;;0.56;100
75089;BME280;63673;49.928;8.150;2022-12-04T03:21:07;989.72;;;0.56;100
75089;BME280;63673;49.928;8.150;2022-12-04T03:22:08;989.71;;;0.55;100
75089;BME280;63673;49.928;8.150;2022-12-04T03:23:10;989.66;;;0.55;100
75089;BME280;63673;49.928;8.150;2022-12-04T03:24:12;989.6;;;0.55;100
75089;BME280;63673;49.928;8.150;2022-12-04T03:25:13;989.65;;;0.55;100
75089;BME280;63673;49.928;8.150;2022-12-04T03:26:17;989.62;;;0.55;100
75089;BME280;63673;49.928;8.150;2022-12-04T03:27:17;989.59;;;0.55;100
75089;BME280;63673;49.928;8.150;2022-12-04T03:28:21;989.55;;;0.55;100
75089;BME280;63673;49.928;8.150;2022-12-04T03:29:21;989.56;;;0.55;100
75089;BME280;63673;49.928;8.150;2022-12-04T03:30:22;989.54;;;0.55;100
75089;BME280;63673;49.928;8.150;2022-12-04T03:31:25;989.55;;;0.54;100
75089;BME280;63673;49.928;8.150;2022-12-04T03:32:27;989.53;;;0.55;100
75089;BME280;63673;49.928;8.150;2022-12-04T03:33:28;989.6;;;0.55;100
75089;BME280;63673;49.928;8.150;2022-12-04T03:34:29;989.54;;;0.55;100
75089;BME280;63673;49.928;8.150;2022-12-04T03:35:32;989.54;;;0.54;100
75089;BME280;63673;49.928;8.150;2022-12-04T03:36:33;989.49;;;0.54;100
75089;BME280;63673;49.928;8.150;2022-12-04T03:37:35;989.49;;;0.55;100
75089;BME280;63673;49.928;8.150;2022-12-04T03:38:36;989.52;;;0.54;100
75089;BME280;63673;49.928;8.150;2022-12-04T03:39:39;989.48;;;0.54;100
75089;BME280;63673;49.928;8.150;2022-12-04T03:40:40;989.48;;;0.55;100
75089;BME280;63673;49.928;8.150;2022-12-04T03:41:45;989.47;;;0.55;100
75089;BME280;63673;49.928;8.150;2022-12-04T03:42:44;989.48;;;0.55;100
75089;BME280;63673;49.928;8.150;2022-12-04T03:43:45;989.48;;;0.55;100
75089;BME280;63673;49.928;8.150;2022-12-04T03:44:47;989.53;;;0.55;100
75089;BME280;63673;49.928;8.150;2022-12-04T03:45:49;989.51;;;0.54;100
75089;BME280;63673;49.928;8.150;2022-12-04T03:46:51;989.43;;;0.53;100
75089;BME280;63673;49.928;8.150;2022-12-04T03:47:52;989.53;;;0.54;100
75089;BME280;63673;49.928;8.150;2022-12-04T03:48:54;989.49;;;0.53;100
75089;BME280;63673;49.928;8.150;2022-12-04T03:49:56;989.49;;;0.52;100
75089;BME280;63673;49.928;8.150;2022-12-04T03:50:58;989.52;;;0.52;100
75089;BME280;63673;49.928;8.150;2022-12-04T03:51:59;989.5;;;0.53;100
75089;BME280;63673;49.928;8.150;2022-12-04T03:53:02;989.44;;;0.53;100
75089;BME280;63673;49.928;8.150;2022-12-04T03:54:03;989.48;;;0.53;100
75089;BME280;63673;49.928;8.150;2022-12-04T03:55:05;989.48;;;0.53;100
75089;BME280;63673;49.928;8.150;2022-12-04T03:56:06;989.49;;;0.51;100
75089;BME280;63673;49.928;8.150;2022-12-04T03:57:07;989.51;;;0.52;100
75089;BME280;63673;49.928;8.150;2022-12-04T03:58:10;989.51;;;0.52;100
75089;BME280;63673;49.928;8.150;2022-12-04T03:59:11;989.52;;;0.52;100
75089;BME280;63673;49.928;8.150;2022-12-04T04:00:13;989.5;;;0.53;100
75089;BME280;63673;49.928;8.150;2022-12-04T04:01:14;989.52;;;0.53;100
75089;BME280;63673;49.928;8.150;2022-12-04T04:02:16;989.54;;;0.53;100
75089;BME280;63673;49.928;8.150;2022-12-04T04:03:18;989.54;;;0.51;100
75089;BME280;63673;49.928;8.150;2022-12-04T04:04:20;989.55;;;0.51;100
75089;BME280;63673;49.928;8.150;2022-12-04T04:05:21;989.54;;;0.51;100
75089;BME280;63673;49.928;8.150;2022-12-04T04:06:24;989.5;;;0.52;100
75089;BME280;63673;49.928;8.150;2022-12-04T04:07:25;989.53;;;0.51;100
75089;BME280;63673;49.928;8.150;2022-12-04T04:08:28;989.54;;;0.51;100
75089;BME280;63673;49.928;8.150;2022-12-04T04:09:29;989.51;;;0.52;100
75089;BME280;63673;49.928;8.150;2022-12-04T04:10:29;989.52;;;0.52;100
75089;BME280;63673;49.928;8.150;2022-12-04T04:11:32;989.52;;;0.51;100
75089;BME280;63673;49.928;8.150;2022-12-04T04:12:34;989.56;;;0.51;100
75089;BME280;63673;49.928;8.150;2022-12-04T04:13:36;989.58;;;0.5;100
75089;BME280;63673;49.928;8.150;2022-12-04T04:14:37;989.58;;;0.52;100
75089;BME280;63673;49.928;8.150;2022-12-04T04:15:40;989.6;;;0.51;100
75089;BME280;63673;49.928;8.150;2022-12-04T04:16:42;989.58;;;0.5;100
75089;BME280;63673;49.928;8.150;2022-12-04T04:17:42;989.53;;;0.51;100
75089;BME280;63673;49.928;8.150;2022-12-04T04:18:43;989.58;;;0.51;100
75089;BME280;63673;49.928;8.150;2022-12-04T04:19:46;989.58;;;0.51;100
75089;BME280;63673;49.928;8.150;2022-12-04T04:20:47;989.58;;;0.51;100
75089;BME280;63673;49.928;8.150;2022-12-04T04:21:49;989.58;;;0.51;100
75089;BME280;63673;49.928;8.150;2022-12-04T04:22:51;989.56;;;0.51;100
75089;BME280;63673;49.928;8.150;2022-12-04T04:23:52;989.56;;;0.51;100
75089;BME280;63673;49.928;8.150;2022-12-04T04:24:55;989.43;;;0.51;100
75089;BME280;63673;49.928;8.150;2022-12-04T04:25:56;989.5;;;0.52;100
75089;BME280;63673;49.928;8.150;2022-12-04T04:26:57;989.52;;;0.51;100
75089;BME280;63673;49.928;8.150;2022-12-04T04:27:59;989.5;;;0.52;100
75089;BME280;63673;49.928;8.150;2022-12-04T04:29:01;989.51;;;0.52;100
75089;BME280;63673;49.928;8.150;2022-12-04T04:30:02;989.52;;;0.51;100
75089;BME280;63673;49.928;8.150;2022-12-04T04:31:06;989.5;;;0.53;100
75089;BME280;63673;49.928;8.150;2022-12-04T04:32:08;989.5;;;0.52;100
75089;BME280;63673;49.928;8.150;2022-12-04T04:33:09;989.48;;;0.52;100
75089;BME280;63673;49.928;8.150;2022-12-04T04:34:12;989.45;;;0.52;100
75089;BME280;63673;49.928;8.150;2022-12-04T04:35:14;989.47;;;0.52;100
75089;BME280;63673;49.928;8.150;2022-12-04T04:36:14;989.47;;;0.53;100
75089;BME280;63673;49.928;8.150;2022-12-04T04:37:17;989.47;;;0.52;100
75089;BME280;63673;49.928;8.150;2022-12-04T04:38:18;989.51;;;0.53;100
75089;BME280;63673;49.928;8.150;2022-12-04T04:39:20;989.5;;;0.51;100
75089;BME280;63673;49.928;8.150;2022-12-04T04:40:21;989.56;;;0.53;100
75089;BME280;63673;49.928;8.150;2022-12-04T04:41:23;989.5;;;0.52;100
75089;BME280;63673;49.928;8.150;2022-12-04T04:42:24;989.5;;;0.52;100
75089;BME280;63673;49.928;8.150;2022-12-04T04:43:26;989.44;;;0.53;100
75089;BME280;63673;49.928;8.150;2022-12-04T04:44:28;989.46;;;0.53;100
75089;BME280;63673;49.928;8.150;2022-12-04T04:45:30;989.47;;;0.54;100
75089;BME280;63673;49.928;8.150;2022-12-04T04:46:31;989.47;;;0.53;100
75089;BME280;63673;49.928;8.150;2022-12-04T04:47:32;989.49;;;0.53;100
75089;BME280;63673;49.928;8.150;2022-12-04T04:48:35;989.49;;;0.54;100
75089;BME280;63673;49.928;8.150;2022-12-04T04:49:35;989.55;;;0.54;100
75089;BME280;63673;49.928;8.150;2022-12-04T04:50:37;989.4;;;0.54;100
75089;BME280;63673;49.928;8.150;2022-12-04T04:51:39;989.46;;;0.53;100
75089;BME280;63673;49.928;8.150;2022-12-04T04:52:43;989.49;;;0.53;100
75089;BME280;63673;49.928;8.150;2022-12-04T04:53:44;989.45;;;0.53;100
75089;BME280;63673;49.928;8.150;2022-12-04T04:54:44;989.45;;;0.53;100
75089;BME280;63673;49.928;8.150;2022-12-04T04:55:46;989.45;;;0.53;100
75089;BME280;63673;49.928;8.150;2022-12-04T04:56:47;989.44;;;0.53;100
75089;BME280;63673;49.928;8.150;2022-12-04T04:57:49;989.47;;;0.53;100
75089;BME280;63673;49.928;8.150;2022-12-04T04:58:51;989.49;;;0.53;100
75089;BME280;63673;49.928;8.150;2022-12-04T04:59:53;989.51;;;0.54;100
75089;BME280;63673;49.928;8.150;2022-12-04T05:00:56;989.49;;;0.53;100
75089;BME280;63673;49.928;8.150;2022-12-04T05:01:56;989.43;;;0.54;100
75089;BME280;63673;49.928;8.150;2022-12-04T05:02:58;989.35;;;0.54;100
75089;BME280;63673;49.928;8.150;2022-12-04T05:04:00;989.4;;;0.54;100
75089;BME280;63673;49.928;8.150;2022-12-04T05:05:02;989.37;;;0.54;100
75089;BME280;63673;49.928;8.150;2022-12-04T05:06:03;989.42;;;0.55;100
75089;BME280;63673;49.928;8.150;2022-12-04T05:07:05;989.29;;;0.54;100
75089;BME280;63673;49.928;8.150;2022-12-04T05:08:07;989.39;;;0.54;100
75089;BME280;63673;49.928;8.150;2022-12-04T05:09:08;989.37;;;0.54;100
75089;BME280;63673;49.928;8.150;2022-12-04T05:10:10;989.36;;;0.55;100
75089;BME280;63673;49.928;8.150;2022-12-04T05:11:13;989.34;;;0.55;100
75089;BME280;63673;49.928;8.150;2022-12-04T05:12:13;989.4;;;0.54;100
75089;BME280;63673;49.928;8.150;2022-12-04T05:13:16;989.36;;;0.54;100
75089;BME280;63673;49.928;8.150;2022-12-04T05:14:17;989.34;;;0.54;100
75089;BME280;63673;49.928;8.150;2022-12-04T05:15:19;989.38;;;0.53;100
75089;BME280;63673;49.928;8.150;2022-12-04T05:16:20;989.38;;;0.54;100
75089;BME280;63673;49.928;8.150;2022-12-04T05:17:22;989.37;;;0.54;100
75089;BME280;63673;49.928;8.150;2022-12-04T05:18:24;989.37;;;0.54;100
75089;BME280;63673;49.928;8.150;2022-12-04T05:19:26;989.41;;;0.54;100
75089;BME280;63673;49.928;8.150;2022-12-04T05:20:27;989.43;;;0.54;100
75089;BME280;63673;49.928;8.150;2022-12-04T05:21:29;989.4;;;0.54;100
75089;BME280;63673;49.928;8.150;2022-12-04T05:22:31;989.44;;;0.54;100
75089;BME280;63673;49.928;8.150;2022-12-04T05:23:33;989.42;;;0.55;100
75089;BME280;63673;49.928;8.150;2022-12-04T05:24:34;989.4;;;0.54;100
75089;BME280;63673;49.928;8.150;2022-12-04T05:25:36;989.36;;;0.54;100
75089;BME280;63673;49.928;8.150;2022-12-04T05:26:38;989.34;;;0.54;100
75089;BME280;63673;49.928;8.150;2022-12-04T05:27:39;989.35;;;0.54;100
75089;BME280;63673;49.928;8.150;2022-12-04T05:28:41;989.39;;;0.54;100
75089;BME280;63673;49.928;8.150;2022-12-04T05:29:43;989.42;;;0.54;100
75089;BME280;63673;49.928;8.150;2022-12-04T05:30:45;989.48;;;0.54;100
75089;BME280;63673;49.928;8.150;2022-12-04T05:31:46;989.48;;;0.54;100
75089;BME280;63673;49.928;8.150;2022-12-04T05:32:48;989.45;;;0.54;100
75089;BME280;63673;49.928;8.150;2022-12-04T05:33:50;989.47;;;0.55;100
75089;BME280;63673;49.928;8.150;2022-12-04T05:34:52;989.48;;;0.54;100
75089;BME280;63673;49.928;8.150;2022-12-04T05:35:55;989.54;;;0.54;100
75089;BME280;63673;49.928;8.150;2022-12-04T05:36:55;989.51;;;0.54;100
75089;BME280;63673;49.928;8.150;2022-12-04T05:37:57;989.49;;;0.54;100
75089;BME280;63673;49.928;8.150;2022-12-04T05:38:59;989.52;;;0.54;100
75089;BME280;63673;49.928;8.150;2022-12-04T05:40:00;989.53;;;0.53;100
75089;BME280;63673;49.928;8.150;2022-12-04T05:41:03;989.54;;;0.53;100
75089;BME280;63673;49.928;8.150;2022-12-04T05:42:04;989.51;;;0.54;100
75089;BME280;63673;49.928;8.150;2022-12-04T05:43:05;989.58;;;0.53;100
75089;BME280;63673;49.928;8.150;2022-12-04T05:44:07;989.64;;;0.54;100
75089;BME280;63673;49.928;8.150;2022-12-04T05:45:09;989.63;;;0.53;100
75089;BME280;63673;49.928;8.150;2022-12-04T05:46:11;989.62;;;0.53;100
75089;BME280;63673;49.928;8.150;2022-12-04T05:47:12;989.54;;;0.53;100
75089;BME280;63673;49.928;8.150;2022-12-04T05:48:14;989.67;;;0.53;100
75089;BME280;63673;49.928;8.150;2022-12-04T05:49:16;989.68;;;0.53;100
75089;BME280;63673;49.928;8.150;2022-12-04T05:50:18;989.66;;;0.52;100
75089;BME280;63673;49.928;8.150;2022-12-04T05:51:19;989.69;;;0.52;100